Time;durP1;ratioP1;P1;durP2;ratioP2;P2;SDS_P1;SDS_P2;PMS_P1;PMS_P2;Temp;Humidity;BMP_temperature;BMP_pressure;BME280_temperature;BME280_humidity;BME280_pressure;Samples;Min_cycle;Max_cycle;Signal;HPM_P1;HPM_P2
2020/12/04 00:00:11;;;;;;;10.88;2.88;;;25.70;62.60;;;;;;4199018;28;20040;-66
2020/12/04 00:02:14;;;;;;;5.55;2.75;;;25.70;62.50;;;;;;4197207;28;20663;-66
2020/12/04 00:04:16;;;;;;;5.30;2.35;;;25.70;62.40;;;;;;4199987;28;20110;-66
2020/12/04 00:06:18;;;;;;;6.47;2.30;;;25.70;62.40;;;;;;4195355;28;20067;-67
2020/12/04 00:08:20;;;;;;;3.72;2.30;;;25.80;62.40;;;;;;4198430;28;20069;-69
2020/12/04 00:10:22;;;;;;;3.92;2.55;;;25.80;62.40;;;;;;4198890;28;20044;-67
2020/12/04 00:12:24;;;;;;;3.88;2.40;;;25.80;62.30;;;;;;4196773;28;20047;-68
2020/12/04 00:14:26;;;;;;;6.32;2.13;;;25.80;62.20;;;;;;4198909;28;20029;-66
2020/12/04 00:16:28;;;;;;;3.35;2.10;;;25.80;62.10;;;;;;4198962;28;20048;-69
2020/12/04 00:18:30;;;;;;;3.15;2.20;;;25.80;62.10;;;;;;4199325;28;20385;-66
2020/12/04 00:20:32;;;;;;;3.50;2.08;;;25.80;62.00;;;;;;4200766;28;20509;-66
2020/12/04 00:22:34;;;;;;;3.90;2.20;;;25.80;62.00;;;;;;4197990;28;20098;-67
2020/12/04 00:24:38;;;;;;;4.32;1.90;;;25.90;62.00;;;;;;4177255;28;20417;-68
2020/12/04 00:26:40;;;;;;;2.75;1.92;;;25.90;62.00;;;;;;4203743;28;20050;-68
2020/12/04 00:28:42;;;;;;;2.92;2.10;;;25.90;61.90;;;;;;4196208;28;20519;-66
2020/12/04 00:30:44;;;;;;;3.63;1.95;;;25.90;61.90;;;;;;4195545;28;20040;-65
2020/12/04 00:32:46;;;;;;;2.42;1.75;;;25.90;61.80;;;;;;4192853;28;20035;-65
2020/12/04 00:34:48;;;;;;;2.30;1.75;;;25.90;61.90;;;;;;4193862;28;20024;-65
2020/12/04 00:36:51;;;;;;;2.55;1.95;;;25.90;61.70;;;;;;4198073;28;20156;-68
2020/12/04 00:38:53;;;;;;;;;;;25.90;61.60;;;;;;4194540;28;20125;-68
2020/12/04 00:40:57;;;;;;;2.42;1.80;;;25.90;61.70;;;;;;4199751;28;19908;-67
2020/12/04 00:42:59;;;;;;;2.67;2.03;;;25.90;61.70;;;;;;4178839;28;20490;-68
2020/12/04 00:45:01;;;;;;;3.25;2.00;;;25.90;61.60;;;;;;4198143;28;20102;-66
2020/12/04 00:47:03;;;;;;;2.55;1.80;;;26.00;61.70;;;;;;4200941;28;20386;-67
2020/12/04 00:49:05;;;;;;;1.98;1.58;;;26.00;61.70;;;;;;4197955;28;20043;-66
2020/12/04 00:51:08;;;;;;;3.17;2.00;;;26.00;61.60;;;;;;4195106;28;20043;-66
2020/12/04 00:53:10;;;;;;;2.75;1.80;;;26.00;61.50;;;;;;4197834;28;20031;-66
2020/12/04 00:55:12;;;;;;;3.80;1.85;;;26.00;61.50;;;;;;4201017;28;20039;-65
2020/12/04 00:57:14;;;;;;;3.08;2.28;;;26.00;61.40;;;;;;4198090;28;20108;-66
2020/12/04 00:59:16;;;;;;;3.50;2.30;;;26.00;61.30;;;;;;4200510;28;20077;-66
2020/12/04 01:01:18;;;;;;;3.10;2.00;;;26.10;61.30;;;;;;4197733;28;20230;-67
2020/12/04 01:03:20;;;;;;;2.85;2.17;;;26.10;61.30;;;;;;4196314;28;20036;-64
2020/12/04 01:05:22;;;;;;;3.03;2.30;;;26.10;61.20;;;;;;4200675;28;20032;-66
2020/12/04 01:07:25;;;;;;;2.55;1.88;;;26.00;61.00;;;;;;4192982;28;20041;-66
2020/12/04 01:09:27;;;;;;;3.15;2.15;;;26.10;61.10;;;;;;4198254;28;20072;-63
2020/12/04 01:11:30;;;;;;;2.83;2.05;;;26.10;61.00;;;;;;4199774;28;20496;-65
2020/12/04 01:13:32;;;;;;;3.10;2.30;;;26.20;61.00;;;;;;4199583;28;20136;-65
2020/12/04 01:15:34;;;;;;;3.67;2.22;;;26.10;60.90;;;;;;4194367;28;20036;-67
2020/12/04 01:17:37;;;;;;;3.72;2.58;;;26.20;60.90;;;;;;4199355;28;20028;-67
2020/12/04 01:19:39;;;;;;;2.87;2.13;;;26.20;60.80;;;;;;4199031;28;20054;-65
2020/12/04 01:21:41;;;;;;;3.75;2.33;;;26.20;60.70;;;;;;4199139;28;20264;-65
2020/12/04 01:23:43;;;;;;;3.28;2.30;;;26.20;60.70;;;;;;4199918;28;20140;-65
2020/12/04 01:25:45;;;;;;;2.87;2.17;;;26.20;60.60;;;;;;4199828;28;20393;-67
2020/12/04 01:27:48;;;;;;;2.78;2.47;;;26.20;60.40;;;;;;4202135;28;20032;-67
2020/12/04 01:29:50;;;;;;;2.97;2.08;;;26.20;60.40;;;;;;4199174;28;20035;-61
2020/12/04 01:31:52;;;;;;;3.00;2.15;;;26.20;59.80;;;;;;4203490;28;20028;-63
2020/12/04 01:33:55;;;;;;;5.70;2.45;;;26.30;54.90;;;;;;4204138;28;20443;-65
2020/12/04 01:35:57;;;;;;;5.32;2.22;;;26.30;52.40;;;;;;4199108;28;20028;-66
2020/12/04 01:38:02;;;;;;;6.80;2.30;;;26.40;49.20;;;;;;4197699;28;20020;-70
2020/12/04 01:40:05;;;;;;;5.40;2.60;;;26.40;47.90;;;;;;4180859;28;20171;-67
2020/12/04 01:42:07;;;;;;;6.82;2.30;;;26.50;43.40;;;;;;4202578;28;20188;-67
2020/12/04 01:44:12;;;;;;;6.00;2.70;;;26.70;42.10;;;;;;4202035;28;20386;-67
2020/12/04 01:46:17;;;;;;;6.75;2.40;;;26.80;40.60;;;;;;4197432;28;20396;-68
2020/12/04 01:48:19;;;;;;;3.72;2.38;;;26.90;42.00;;;;;;4166582;28;20037;-67
2020/12/04 01:50:25;;;;;;;4.83;2.20;;;27.00;40.40;;;;;;4200685;28;20392;-69
2020/12/04 01:52:27;;;;;;;4.57;2.50;;;27.10;38.70;;;;;;4198628;28;20466;-65
2020/12/04 01:54:33;;;;;;;6.43;2.90;;;27.30;36.90;;;;;;4198199;28;20028;-66
2020/12/04 01:56:38;;;;;;;4.78;1.98;;;27.50;38.60;;;;;;4197731;28;20285;-65
2020/12/04 01:58:40;;;;;;;4.78;2.50;;;27.60;38.20;;;;;;4202999;28;20081;-62
2020/12/04 02:00:43;;;;;;;6.07;2.63;;;27.70;38.20;;;;;;4192731;28;20074;-65
2020/12/04 02:02:46;;;;;;;9.10;2.63;;;27.70;39.30;;;;;;4196744;28;20045;-63
2020/12/04 02:04:49;;;;;;;6.82;2.20;;;27.70;40.90;;;;;;4208460;28;20377;-63
2020/12/04 02:06:55;;;;;;;7.32;2.75;;;27.70;43.10;;;;;;4201808;28;20139;-62
2020/12/04 02:09:05;;;;;;;5.88;2.58;;;27.70;43.90;;;;;;4205313;28;20087;-69
2020/12/04 02:11:18;;;;;;;8.75;2.13;;;27.70;44.70;;;;;;4201625;28;20024;-66
2020/12/04 02:13:21;;;;;;;7.10;2.33;;;27.60;45.10;;;;;;4201448;28;20046;-63
2020/12/04 02:15:23;;;;;;;;;;;27.70;46.00;;;;;;4200767;28;20424;-63
2020/12/04 02:17:33;;;;;;;7.45;2.53;;;27.60;46.70;;;;;;4201343;28;20383;-72
2020/12/04 02:19:43;;;;;;;6.82;2.58;;;27.70;47.40;;;;;;4204465;28;20040;-65
2020/12/04 02:21:45;;;;;;;7.10;2.30;;;27.70;48.10;;;;;;4201779;28;20103;-71
2020/12/04 02:23:49;;;;;;;9.13;2.70;;;27.70;48.50;;;;;;4203109;28;20020;-63
2020/12/04 02:25:52;;;;;;;10.57;2.88;;;27.70;48.50;;;;;;4203174;28;20036;-65
2020/12/04 02:27:54;;;;;;;7.72;2.40;;;27.70;49.40;;;;;;4196875;28;20068;-66
2020/12/04 02:29:57;;;;;;;18.37;2.63;;;27.70;50.00;;;;;;4199371;28;20043;-62
2020/12/04 02:31:59;;;;;;;6.18;1.80;;;27.70;50.50;;;;;;4192278;28;20044;-61
2020/12/04 02:34:01;;;;;;;3.78;2.10;;;27.70;51.00;;;;;;4195817;28;20505;-64
2020/12/04 02:36:04;;;;;;;3.88;1.70;;;27.70;51.20;;;;;;4191206;28;20037;-65
2020/12/04 02:38:06;;;;;;;11.30;2.00;;;27.70;51.90;;;;;;4201484;28;20118;-61
2020/12/04 02:40:08;;;;;;;4.18;1.80;;;27.70;51.90;;;;;;4190855;28;20036;-63
2020/12/04 02:42:10;;;;;;;4.00;2.15;;;27.80;51.90;;;;;;4203647;28;20637;-61
2020/12/04 02:44:13;;;;;;;3.63;1.50;;;27.80;52.30;;;;;;4199571;28;20309;-61
2020/12/04 02:46:15;;;;;;;3.70;1.70;;;27.80;53.00;;;;;;4194174;28;20048;-61
2020/12/04 02:48:17;;;;;;;5.80;1.90;;;27.80;53.20;;;;;;4202545;28;20547;-62
2020/12/04 02:50:19;;;;;;;5.22;1.80;;;27.80;52.80;;;;;;4197675;28;20035;-65
2020/12/04 02:52:25;;;;;;;3.60;1.52;;;27.90;53.00;;;;;;4196661;28;20073;-62
2020/12/04 02:54:27;;;;;;;4.90;1.88;;;27.90;52.90;;;;;;4201721;28;20062;-63
2020/12/04 02:56:29;;;;;;;4.05;1.67;;;27.90;53.10;;;;;;4200439;28;20425;-59
2020/12/04 02:58:31;;;;;;;5.05;1.90;;;27.90;53.10;;;;;;4195060;28;20047;-64
2020/12/04 03:00:33;;;;;;;2.93;1.67;;;27.90;53.90;;;;;;4200540;28;20036;-64
2020/12/04 03:02:35;;;;;;;3.80;2.10;;;28.00;54.10;;;;;;4198430;28;20047;-62
2020/12/04 03:04:38;;;;;;;2.78;1.48;;;28.00;53.90;;;;;;4197786;28;20038;-60
2020/12/04 03:06:40;;;;;;;2.78;1.73;;;28.00;53.60;;;;;;4194221;28;20051;-62
2020/12/04 03:08:43;;;;;;;2.40;1.83;;;28.10;53.80;;;;;;4193694;28;20335;-59
2020/12/04 03:10:45;;;;;;;;;;;28.10;53.60;;;;;;4197798;28;20035;-60
2020/12/04 03:12:47;;;;;;;5.72;1.75;;;28.10;53.40;;;;;;4201287;28;19977;-58
2020/12/04 03:14:49;;;;;;;4.53;2.00;;;28.10;53.60;;;;;;4192881;28;20039;-61
2020/12/04 03:16:52;;;;;;;2.13;1.52;;;28.20;53.60;;;;;;4200770;28;20066;-60
2020/12/04 03:18:54;;;;;;;3.63;1.80;;;28.20;53.70;;;;;;4198090;28;20067;-58
2020/12/04 03:20:56;;;;;;;4.47;1.95;;;28.20;53.80;;;;;;4194707;28;20567;-59
2020/12/04 03:22:58;;;;;;;2.43;1.80;;;28.20;53.70;;;;;;4200850;28;20130;-61
2020/12/04 03:25:02;;;;;;;3.35;1.50;;;28.30;53.70;;;;;;4199223;28;20032;-64
2020/12/04 03:27:04;;;;;;;2.80;1.65;;;28.30;53.90;;;;;;4196562;28;20058;-61
2020/12/04 03:29:07;;;;;;;3.75;1.90;;;28.30;54.00;;;;;;4202707;28;20461;-59
2020/12/04 03:31:09;;;;;;;2.35;1.60;;;28.30;54.00;;;;;;4195630;28;20541;-60
2020/12/04 03:33:11;;;;;;;3.67;1.63;;;28.40;54.10;;;;;;4199014;28;20089;-62
2020/12/04 03:35:13;;;;;;;11.07;2.10;;;28.40;54.20;;;;;;4202653;28;20032;-63
2020/12/04 03:37:16;;;;;;;;;;;28.40;54.50;;;;;;4201246;28;20036;-63
2020/12/04 03:39:18;;;;;;;3.15;1.80;;;28.50;55.00;;;;;;4194667;28;20018;-65
2020/12/04 03:41:20;;;;;;;6.05;1.90;;;28.50;55.20;;;;;;4202911;28;20426;-64
2020/12/04 03:43:22;;;;;;;4.83;1.63;;;28.50;55.20;;;;;;4179106;28;20513;-63
2020/12/04 03:45:24;;;;;;;3.87;1.63;;;28.60;55.40;;;;;;4193104;28;20065;-62
2020/12/04 03:47:26;;;;;;;3.17;1.70;;;28.60;55.70;;;;;;4197311;28;20190;-63
2020/12/04 03:49:28;;;;;;;3.83;1.97;;;28.60;55.50;;;;;;4197913;28;20442;-60
2020/12/04 03:51:32;;;;;;;4.07;1.77;;;28.70;55.40;;;;;;4198725;28;20036;-61
2020/12/04 03:53:34;;;;;;;4.75;1.90;;;28.70;55.50;;;;;;4183768;28;20047;-62
2020/12/04 03:55:36;;;;;;;4.82;1.90;;;28.70;55.60;;;;;;4193818;28;20553;-64
2020/12/04 03:57:38;;;;;;;2.37;1.60;;;28.80;56.10;;;;;;4196297;28;20032;-63
2020/12/04 03:59:42;;;;;;;3.13;1.83;;;28.80;56.20;;;;;;4197904;28;20050;-67
2020/12/04 04:01:44;;;;;;;4.07;2.00;;;28.80;55.80;;;;;;4194824;28;20048;-68
2020/12/04 04:03:46;;;;;;;5.38;1.98;;;28.90;55.40;;;;;;4185315;28;20175;-56
2020/12/04 04:05:48;;;;;;;3.45;1.73;;;28.90;55.50;;;;;;4177364;28;20047;-60
2020/12/04 04:07:51;;;;;;;4.47;2.30;;;29.00;55.40;;;;;;4199985;28;20491;-59
2020/12/04 04:09:53;;;;;;;4.25;2.20;;;29.10;55.10;;;;;;4195890;28;20135;-59
2020/12/04 04:11:58;;;;;;;3.03;2.22;;;29.20;55.20;;;;;;4202186;28;20031;-59
2020/12/04 04:14:00;;;;;;;4.30;1.70;;;29.30;54.90;;;;;;4204820;28;20456;-60
2020/12/04 04:16:05;;;;;;;3.50;2.00;;;29.40;54.90;;;;;;4203930;28;21319;-60
2020/12/04 04:18:07;;;;;;;4.03;2.30;;;29.40;54.70;;;;;;4200669;28;20039;-61
2020/12/04 04:20:09;;;;;;;3.95;2.20;;;29.50;54.60;;;;;;4201465;28;20644;-61
2020/12/04 04:22:11;;;;;;;3.37;2.27;;;29.50;54.40;;;;;;4201690;28;20046;-60
2020/12/04 04:24:16;;;;;;;4.23;2.13;;;29.60;54.40;;;;;;4206063;28;20028;-60
2020/12/04 04:26:18;;;;;;;4.28;2.10;;;29.70;54.30;;;;;;4200810;28;20783;-59
2020/12/04 04:28:24;;;;;;;5.90;2.40;;;29.70;54.20;;;;;;4195243;28;20104;-62
2020/12/04 04:30:32;;;;;;;3.80;2.33;;;29.80;54.20;;;;;;4179114;28;20281;-61
2020/12/04 04:32:38;;;;;;;4.03;2.30;;;29.90;54.00;;;;;;4197842;28;20649;-61
2020/12/04 04:34:40;;;;;;;2.65;1.80;;;29.90;54.00;;;;;;4185462;28;20047;-62
2020/12/04 04:36:43;;;;;;;3.72;2.20;;;30.00;54.00;;;;;;4197975;28;20097;-62
2020/12/04 04:38:45;;;;;;;;;;;30.10;53.90;;;;;;4189846;28;21235;-62
2020/12/04 04:40:47;;;;;;;4.97;2.20;;;30.10;53.90;;;;;;4199393;28;19936;-61
2020/12/04 04:43:04;;;;;;;6.67;2.30;;;30.20;53.70;;;;;;4196084;28;20069;-59
2020/12/04 04:45:06;;;;;;;4.00;2.17;;;30.30;53.80;;;;;;4199280;28;20142;-60
2020/12/04 04:47:19;;;;;;;3.25;2.17;;;30.30;53.70;;;;;;4182405;28;20400;-60
2020/12/04 04:49:28;;;;;;;4.00;2.20;;;30.40;53.70;;;;;;4200115;28;20024;-61
2020/12/04 04:51:30;;;;;;;3.50;2.30;;;30.50;53.80;;;;;;4196442;28;20082;-62
2020/12/04 04:53:33;;;;;;;3.10;2.23;;;30.50;53.70;;;;;;4197584;28;20111;-59
2020/12/04 04:55:35;;;;;;;3.35;2.20;;;30.60;53.80;;;;;;4191743;28;20459;-62
2020/12/04 04:57:38;;;;;;;3.07;2.10;;;30.60;53.70;;;;;;4198151;28;20035;-61
2020/12/04 04:59:43;;;;;;;4.00;2.60;;;30.70;53.60;;;;;;4194532;28;20284;-59
2020/12/04 05:01:48;;;;;;;3.90;2.35;;;30.70;52.20;;;;;;4198286;28;20142;-61
2020/12/04 05:04:02;;;;;;;5.38;2.97;;;30.70;50.40;;;;;;4198988;28;20131;-58
2020/12/04 05:06:04;;;;;;;3.47;2.60;;;30.50;49.80;;;;;;4202616;28;20120;-60
2020/12/04 05:08:21;;;;;;;4.43;2.70;;;30.20;48.70;;;;;;4200527;28;20020;-60
2020/12/04 05:10:23;;;;;;;3.58;2.38;;;30.00;48.40;;;;;;4200952;28;20044;-60
2020/12/04 05:12:25;;;;;;;3.33;2.30;;;29.70;47.50;;;;;;4200931;28;20330;-59
2020/12/04 05:14:28;;;;;;;3.03;2.40;;;29.50;47.40;;;;;;4192227;28;20468;-58
2020/12/04 05:16:31;;;;;;;3.45;2.42;;;29.30;47.40;;;;;;4197150;28;20039;-58
2020/12/04 05:18:33;;;;;;;4.15;2.20;;;29.10;46.80;;;;;;4197384;28;20051;-59
2020/12/04 05:20:37;;;;;;;3.03;2.28;;;28.90;47.30;;;;;;4201918;28;20118;-60
2020/12/04 05:22:52;;;;;;;3.35;2.17;;;28.80;46.50;;;;;;4195928;28;20055;-59
2020/12/04 05:24:54;;;;;;;2.53;1.90;;;28.60;47.00;;;;;;4182258;28;20032;-63
2020/12/04 05:26:56;;;;;;;2.80;2.10;;;28.40;47.10;;;;;;4190518;28;20093;-60
2020/12/04 05:28:59;;;;;;;2.63;2.00;;;28.30;46.70;;;;;;4193754;28;20408;-52
2020/12/04 05:31:08;;;;;;;4.18;2.08;;;28.20;47.10;;;;;;4191052;28;20036;-57
2020/12/04 05:33:11;;;;;;;3.28;1.83;;;28.00;46.70;;;;;;4189364;28;20048;-60
2020/12/04 05:35:13;;;;;;;2.58;1.98;;;27.90;46.70;;;;;;4199776;28;20034;-62
2020/12/04 05:37:19;;;;;;;2.83;2.07;;;27.80;46.70;;;;;;4181382;28;20066;-62
2020/12/04 05:39:21;;;;;;;3.10;2.08;;;27.70;46.60;;;;;;4190850;28;20418;-61
2020/12/04 05:41:25;;;;;;;3.85;2.45;;;27.60;46.90;;;;;;4196732;28;20082;-64
2020/12/04 05:43:32;;;;;;;3.10;2.05;;;27.50;46.70;;;;;;4168500;28;20049;-61
2020/12/04 05:45:35;;;;;;;3.50;2.80;;;27.40;47.00;;;;;;4202519;28;20032;-62
2020/12/04 05:47:39;;;;;;;7.20;6.50;;;27.30;47.00;;;;;;4189348;28;20081;-61
2020/12/04 05:49:42;;;;;;;11.75;10.60;;;27.20;47.00;;;;;;4195219;28;20075;-60
2020/12/04 05:51:48;;;;;;;42.88;27.17;;;27.20;47.30;;;;;;4193463;28;20039;-60
2020/12/04 05:53:57;;;;;;;66.40;37.08;;;27.00;47.50;;;;;;4184903;28;20051;-59
2020/12/04 05:55:59;;;;;;;65.68;37.00;;;26.90;47.50;;;;;;4180492;28;20121;-61
2020/12/04 05:58:04;;;;;;;54.30;35.05;;;26.90;47.50;;;;;;4178066;28;21482;-60
2020/12/04 06:00:06;;;;;;;55.35;34.50;;;26.80;47.30;;;;;;4196164;28;20680;-60
2020/12/04 06:02:14;;;;;;;45.72;30.73;;;26.70;47.30;;;;;;4198663;28;20043;-59
2020/12/04 06:04:19;;;;;;;45.83;30.33;;;26.60;47.70;;;;;;4199407;28;20059;-59
2020/12/04 06:06:40;;;;;;;42.22;28.27;;;26.60;47.00;;;;;;4197726;28;20341;-60
2020/12/04 06:08:43;;;;;;;36.83;23.77;;;26.50;46.90;;;;;;4200566;28;20028;-59
2020/12/04 06:10:45;;;;;;;34.97;23.17;;;26.40;47.10;;;;;;4193840;28;20476;-60
2020/12/04 06:12:57;;;;;;;30.33;19.47;;;26.30;47.20;;;;;;4191331;28;20036;-61
2020/12/04 06:15:34;;;;;;;28.45;19.27;;;26.20;47.60;;;;;;4194725;28;20031;-60
2020/12/04 06:17:36;;;;;;;22.70;16.10;;;26.20;47.20;;;;;;4192814;28;20036;-59
2020/12/04 06:19:46;;;;;;;20.88;14.00;;;26.10;47.40;;;;;;4201133;28;20478;-59
2020/12/04 06:21:49;;;;;;;18.42;12.88;;;26.10;47.50;;;;;;4188229;28;20146;-60
2020/12/04 06:24:07;;;;;;;16.90;11.68;;;25.90;47.40;;;;;;4203024;28;20335;-60
2020/12/04 06:26:10;;;;;;;17.88;11.63;;;25.90;47.40;;;;;;4179156;28;20462;-60
2020/12/04 06:28:24;;;;;;;14.38;9.50;;;25.80;47.50;;;;;;4176650;28;20032;-60
2020/12/04 06:30:27;;;;;;;14.00;9.27;;;25.80;47.40;;;;;;4192804;28;20135;-60
2020/12/04 06:32:41;;;;;;;12.27;8.63;;;25.70;47.40;;;;;;4195188;28;20024;-60
2020/12/04 06:34:43;;;;;;;10.30;7.55;;;25.70;47.50;;;;;;4201099;28;20627;-59
2020/12/04 06:36:47;;;;;;;10.47;7.30;;;25.60;47.60;;;;;;4196288;28;20035;-59
2020/12/04 06:38:52;;;;;;;10.48;6.57;;;25.50;47.30;;;;;;4195718;28;20273;-59
2020/12/04 06:41:22;;;;;;;8.98;6.75;;;25.50;47.40;;;;;;4197163;28;20666;-59
2020/12/04 06:43:36;;;;;;;7.90;5.82;;;25.50;47.70;;;;;;4199174;28;20328;-60
2020/12/04 06:45:55;;;;;;;;;;;25.40;47.50;;;;;;4194257;28;20184;-60
2020/12/04 06:48:19;;;;;;;8.77;5.20;;;25.30;47.80;;;;;;4190226;28;20017;-57
2020/12/04 06:50:41;;;;;;;7.13;4.55;;;25.30;47.50;;;;;;4196521;28;20436;-60
2020/12/04 06:52:47;;;;;;;6.82;4.35;;;25.20;47.60;;;;;;4194891;28;20032;-59
2020/12/04 06:54:58;;;;;;;7.15;4.50;;;25.10;47.60;;;;;;4198690;28;20032;-60
2020/12/04 06:57:01;;;;;;;6.60;4.07;;;25.10;47.70;;;;;;4163514;28;20471;-61
2020/12/04 06:59:03;;;;;;;6.03;3.42;;;25.10;47.60;;;;;;4203065;28;20509;-60
2020/12/04 07:01:05;;;;;;;5.45;3.58;;;25.00;47.60;;;;;;4193244;28;20052;-60
2020/12/04 07:03:08;;;;;;;4.30;3.28;;;25.00;47.70;;;;;;4181421;28;20049;-59
2020/12/04 07:05:14;;;;;;;4.53;3.20;;;24.90;47.80;;;;;;4190771;28;20507;-60
2020/12/04 07:07:17;;;;;;;4.10;3.08;;;24.80;47.80;;;;;;4201512;28;20521;-61
2020/12/04 07:09:20;;;;;;;4.60;2.80;;;24.80;47.90;;;;;;4199951;28;20039;-55
2020/12/04 07:11:26;;;;;;;5.78;2.80;;;24.70;47.80;;;;;;4198453;28;20058;-59
2020/12/04 07:13:37;;;;;;;4.75;2.60;;;24.60;48.00;;;;;;4183746;28;20037;-58
2020/12/04 07:15:45;;;;;;;4.72;2.63;;;24.60;48.40;;;;;;4193630;28;20039;-60
2020/12/04 07:18:00;;;;;;;4.47;2.67;;;24.60;48.30;;;;;;4201051;28;20048;-63
2020/12/04 07:20:02;;;;;;;3.78;2.42;;;24.60;48.40;;;;;;4198901;28;20029;-62
2020/12/04 07:22:05;;;;;;;4.63;2.60;;;24.60;48.40;;;;;;4196675;28;20036;-61
2020/12/04 07:24:07;;;;;;;3.28;2.08;;;24.50;48.30;;;;;;4174582;28;20493;-55
2020/12/04 07:26:18;;;;;;;4.73;2.40;;;24.50;48.50;;;;;;4195489;28;20058;-60
2020/12/04 07:28:24;;;;;;;3.33;2.22;;;24.40;48.50;;;;;;4201865;28;20036;-60
2020/12/04 07:30:26;;;;;;;3.13;2.17;;;24.40;48.50;;;;;;4198291;28;20144;-60
2020/12/04 07:32:28;;;;;;;3.83;1.77;;;24.30;48.40;;;;;;4205700;28;20023;-56
2020/12/04 07:34:37;;;;;;;2.90;1.80;;;24.30;48.60;;;;;;4194536;28;20066;-61
2020/12/04 07:36:49;;;;;;;4.78;2.38;;;24.20;48.50;;;;;;4199877;28;20039;-61
2020/12/04 07:38:53;;;;;;;2.78;2.00;;;24.20;48.60;;;;;;4186926;28;20351;-56
2020/12/04 07:40:56;;;;;;;3.40;2.20;;;24.10;48.60;;;;;;4197861;28;20024;-60
2020/12/04 07:42:58;;;;;;;3.13;2.20;;;24.10;48.70;;;;;;4205230;28;20672;-52
2020/12/04 07:45:00;;;;;;;5.13;2.25;;;24.10;49.00;;;;;;4198868;28;20012;-58
2020/12/04 07:47:08;;;;;;;6.13;2.40;;;24.00;48.90;;;;;;4199490;28;20046;-60
2020/12/04 07:49:16;;;;;;;4.50;2.00;;;23.90;48.90;;;;;;4195439;28;20508;-59
2020/12/04 07:51:19;;;;;;;2.92;2.00;;;23.90;48.90;;;;;;4203778;28;20411;-58
2020/12/04 07:53:21;;;;;;;4.03;2.20;;;23.80;49.00;;;;;;4202922;28;20016;-59
2020/12/04 07:55:26;;;;;;;3.22;2.08;;;23.80;49.20;;;;;;4206026;28;20032;-52
2020/12/04 07:57:49;;;;;;;3.17;2.13;;;23.80;49.10;;;;;;4196494;28;20092;-59
2020/12/04 07:59:56;;;;;;;3.53;1.92;;;23.70;49.10;;;;;;4199862;28;20032;-58
2020/12/04 08:02:01;;;;;;;2.95;1.90;;;23.60;49.20;;;;;;4198331;28;20112;-60
2020/12/04 08:04:04;;;;;;;3.58;1.90;;;23.60;49.30;;;;;;4197895;28;20119;-59
2020/12/04 08:06:12;;;;;;;3.58;2.10;;;23.50;49.30;;;;;;4200171;28;20570;-60
2020/12/04 08:08:20;;;;;;;3.50;1.75;;;23.50;49.40;;;;;;4199640;28;20415;-61
2020/12/04 08:10:23;;;;;;;2.83;1.75;;;23.40;49.50;;;;;;4182909;28;20059;-61
2020/12/04 08:12:31;;;;;;;3.17;2.00;;;23.40;49.60;;;;;;4196998;28;20567;-60
2020/12/04 08:14:35;;;;;;;3.70;2.10;;;23.30;49.60;;;;;;4202528;28;20316;-59
2020/12/04 08:16:42;;;;;;;3.58;2.15;;;23.30;49.70;;;;;;4198205;28;20083;-63
2020/12/04 08:18:47;;;;;;;3.22;2.20;;;23.20;49.70;;;;;;4203050;28;20036;-66
2020/12/04 08:20:49;;;;;;;3.20;1.85;;;23.20;49.90;;;;;;4197353;28;20058;-61
2020/12/04 08:22:51;;;;;;;3.33;2.22;;;23.10;50.10;;;;;;4204025;28;20027;-61
2020/12/04 08:25:08;;;;;;;2.78;1.75;;;23.10;50.20;;;;;;4196030;28;20115;-63
2020/12/04 08:27:15;;;;;;;3.88;2.42;;;23.00;50.00;;;;;;4197489;28;20079;-60
2020/12/04 08:29:17;;;;;;;3.78;2.03;;;23.00;50.10;;;;;;4205649;28;20055;-62
2020/12/04 08:31:26;;;;;;;3.10;1.90;;;22.90;50.00;;;;;;4197462;28;20028;-63
2020/12/04 08:33:28;;;;;;;3.17;2.20;;;22.90;50.20;;;;;;4196842;28;20475;-62
2020/12/04 08:35:40;;;;;;;3.17;2.20;;;22.90;50.50;;;;;;4195465;28;20040;-68
2020/12/04 08:37:43;;;;;;;4.60;2.20;;;22.80;50.30;;;;;;4189266;28;20492;-61
2020/12/04 08:39:47;;;;;;;3.30;2.20;;;22.80;50.40;;;;;;4180056;28;20432;-60
2020/12/04 08:41:51;;;;;;;3.35;2.30;;;22.70;50.20;;;;;;4202039;28;20043;-61
2020/12/04 08:43:53;;;;;;;3.17;2.13;;;22.70;50.00;;;;;;4195514;28;20428;-59
2020/12/04 08:45:58;;;;;;;4.13;2.00;;;22.70;50.00;;;;;;4199990;28;20027;-60
2020/12/04 08:48:15;;;;;;;3.47;2.13;;;22.70;49.80;;;;;;4199102;28;23665;-60
2020/12/04 08:50:20;;;;;;;4.35;2.40;;;22.60;49.90;;;;;;4203865;28;20042;-60
2020/12/04 08:52:38;;;;;;;3.80;2.15;;;22.60;49.80;;;;;;4196550;28;20131;-60
2020/12/04 08:54:47;;;;;;;3.40;2.13;;;22.50;49.80;;;;;;4197148;28;20089;-60
2020/12/04 08:56:56;;;;;;;3.15;2.00;;;22.50;49.90;;;;;;4198955;28;20381;-60
2020/12/04 08:58:58;;;;;;;3.75;2.03;;;22.50;49.90;;;;;;4195487;28;20430;-60
2020/12/04 09:01:01;;;;;;;5.22;2.20;;;22.40;49.80;;;;;;4196512;28;20036;-60
2020/12/04 09:03:03;;;;;;;4.65;1.92;;;22.40;50.10;;;;;;4197313;28;20071;-60
2020/12/04 09:05:11;;;;;;;3.80;2.22;;;22.40;50.30;;;;;;4197919;28;20036;-60
2020/12/04 09:07:13;;;;;;;3.20;2.10;;;22.40;50.70;;;;;;4197894;28;20036;-60
2020/12/04 09:09:15;;;;;;;4.03;2.45;;;22.50;52.10;;;;;;4174304;28;20045;-61
2020/12/04 09:11:18;;;;;;;3.53;2.22;;;22.50;51.00;;;;;;4197340;28;20032;-60
2020/12/04 09:13:21;;;;;;;3.63;2.20;;;22.50;50.50;;;;;;4194658;28;20370;-60
2020/12/04 09:15:26;;;;;;;3.10;2.00;;;22.40;50.10;;;;;;4179427;28;20045;-62
2020/12/04 09:17:28;;;;;;;3.40;2.33;;;22.40;50.00;;;;;;4182201;28;20386;-59
2020/12/04 09:19:31;;;;;;;3.30;1.90;;;22.30;49.90;;;;;;4195663;28;20040;-56
2020/12/04 09:21:33;;;;;;;3.33;2.10;;;22.30;50.50;;;;;;4196112;28;20038;-60
2020/12/04 09:23:37;;;;;;;3.72;2.35;;;22.30;50.80;;;;;;4196535;28;20051;-60
2020/12/04 09:25:39;;;;;;;3.97;2.25;;;22.40;51.10;;;;;;4194998;28;20040;-51
2020/12/04 09:27:42;;;;;;;3.70;2.10;;;22.40;51.70;;;;;;4199916;28;20043;-46
2020/12/04 09:29:44;;;;;;;3.70;2.28;;;22.40;52.30;;;;;;4187329;28;20052;-52
2020/12/04 09:31:47;;;;;;;6.72;2.83;;;22.50;53.10;;;;;;4197679;28;20470;-58
2020/12/04 09:33:50;;;;;;;6.03;2.90;;;22.70;53.50;;;;;;4198433;28;20031;-55
2020/12/04 09:35:51;;;;;;;;;;;22.80;53.50;;;;;;4195349;28;20675;-57
2020/12/04 09:37:53;;;;;;;6.07;3.15;;;23.00;53.40;;;;;;4196503;28;20366;-58
2020/12/04 09:40:01;;;;;;;5.28;2.92;;;23.10;54.00;;;;;;4200778;28;20404;-56
2020/12/04 09:42:03;;;;;;;6.38;2.97;;;23.30;53.30;;;;;;4197993;28;20046;-54
2020/12/04 09:44:05;;;;;;;6.57;2.47;;;23.40;53.20;;;;;;4198781;28;20024;-57
2020/12/04 09:46:07;;;;;;;7.80;2.80;;;23.40;53.20;;;;;;4197740;28;20032;-55
2020/12/04 09:48:09;;;;;;;4.03;2.80;;;23.60;53.10;;;;;;4196109;28;20036;-59
2020/12/04 09:50:15;;;;;;;5.75;2.80;;;23.70;53.00;;;;;;4203362;28;20024;-54
2020/12/04 09:52:18;;;;;;;5.70;2.50;;;23.80;53.10;;;;;;4201056;28;20540;-48
2020/12/04 09:54:20;;;;;;;8.02;2.75;;;23.80;53.00;;;;;;4198249;28;20036;-55
2020/12/04 09:56:23;;;;;;;6.63;2.33;;;23.90;53.10;;;;;;4200927;28;20550;-59
2020/12/04 09:58:25;;;;;;;3.65;2.22;;;24.00;53.10;;;;;;4197388;28;20047;-55
2020/12/04 10:00:27;;;;;;;5.28;2.40;;;24.10;53.10;;;;;;4198122;28;20031;-52
2020/12/04 10:02:29;;;;;;;4.85;2.72;;;24.10;53.20;;;;;;4203612;28;20047;-57
2020/12/04 10:04:32;;;;;;;7.72;2.00;;;24.20;53.30;;;;;;4205406;28;20037;-50
2020/12/04 10:06:34;;;;;;;7.32;2.42;;;24.30;53.30;;;;;;4200219;28;20043;-60
2020/12/04 10:08:36;;;;;;;12.32;2.45;;;24.30;53.40;;;;;;4203614;28;20504;-59
2020/12/04 10:10:39;;;;;;;5.47;2.05;;;24.40;53.30;;;;;;4197448;28;20484;-60
2020/12/04 10:12:40;;;;;;;;;;;24.40;53.40;;;;;;4195830;28;20077;-59
2020/12/04 10:14:43;;;;;;;6.90;2.63;;;24.50;53.40;;;;;;4200237;28;19941;-56
2020/12/04 10:16:46;;;;;;;5.63;2.08;;;24.60;53.40;;;;;;4200757;28;20035;-63
2020/12/04 10:18:48;;;;;;;10.10;2.30;;;24.60;53.40;;;;;;4200041;28;20043;-61
2020/12/04 10:20:50;;;;;;;4.90;2.22;;;24.60;53.50;;;;;;4203076;28;20327;-61
2020/12/04 10:22:53;;;;;;;5.47;2.30;;;24.80;53.60;;;;;;4199581;28;20071;-61
2020/12/04 10:24:55;;;;;;;12.73;2.47;;;24.80;53.60;;;;;;4195964;28;20028;-51
2020/12/04 10:26:58;;;;;;;4.78;2.42;;;24.80;53.80;;;;;;4200248;28;20035;-56
2020/12/04 10:29:00;;;;;;;4.15;1.88;;;24.90;53.80;;;;;;4205994;28;20307;-57
2020/12/04 10:31:03;;;;;;;12.40;2.97;;;24.90;53.80;;;;;;4200353;28;20131;-62
2020/12/04 10:33:05;;;;;;;8.20;3.38;;;25.00;53.90;;;;;;4209535;28;20093;-63
2020/12/04 10:35:10;;;;;;;13.10;3.90;;;25.00;54.30;;;;;;4208969;28;20031;-63
2020/12/04 10:37:12;;;;;;;8.38;3.85;;;25.10;54.50;;;;;;4208533;28;20039;-64
2020/12/04 10:39:15;;;;;;;9.73;3.55;;;25.10;54.70;;;;;;4205201;28;20040;-64
2020/12/04 10:41:21;;;;;;;10.73;3.80;;;25.20;54.70;;;;;;4207576;28;20492;-64
2020/12/04 10:43:23;;;;;;;10.45;3.90;;;25.20;54.90;;;;;;4192852;28;20052;-63
2020/12/04 10:45:25;;;;;;;10.65;4.53;;;25.30;55.20;;;;;;4194592;28;20071;-65
2020/12/04 10:47:27;;;;;;;12.95;4.63;;;25.30;55.40;;;;;;4196420;28;20043;-62